createdAt,value
2022-12-15T00:02:03.977Z,98924.66
2022-12-15T00:04:47.633Z,98922.06
2022-12-15T00:07:31.166Z,98922.96
2022-12-15T00:10:14.681Z,98922.75
2022-12-15T00:12:58.332Z,98924.58
2022-12-15T00:15:42.015Z,98928.77
2022-12-15T00:18:25.711Z,98923.96
2022-12-15T00:21:13.859Z,98927.74
2022-12-15T00:23:57.372Z,98926.69
2022-12-15T00:26:40.922Z,98925.29
2022-12-15T00:29:24.441Z,98926.89
2022-12-15T00:32:07.990Z,98927.64
2022-12-15T00:34:51.628Z,98921.49
2022-12-15T00:37:35.172Z,98918.05
2022-12-15T00:40:04.275Z,98915.10
2022-12-15T00:42:31.858Z,98918.21
2022-12-15T00:44:59.465Z,98916.58
2022-12-15T00:47:27.112Z,98918.01
2022-12-15T00:50:10.786Z,98917.70
2022-12-15T00:52:54.332Z,98920.48
2022-12-15T00:55:37.859Z,98924.50
2022-12-15T00:58:21.852Z,98921.96
2022-12-15T01:01:05.437Z,98922.98
2022-12-15T01:03:49.251Z,98922.34
2022-12-15T01:06:35.201Z,98924.66
2022-12-15T01:09:20.349Z,98920.77
2022-12-15T01:12:03.978Z,98917.86
2022-12-15T01:14:48.758Z,98915.50
2022-12-15T01:17:34.353Z,98914.91
2022-12-15T01:20:20.100Z,98916.05
2022-12-15T01:22:50.807Z,98912.66
2022-12-15T01:25:21.208Z,98909.84
2022-12-15T01:27:49.625Z,98908.50
2022-12-15T01:30:23.463Z,98909.27
2022-12-15T01:32:51.279Z,98913.19
2022-12-15T01:35:20.001Z,98909.22
2022-12-15T01:37:50.107Z,98908.10
2022-12-15T01:40:35.627Z,98909.84
2022-12-15T01:43:03.636Z,98905.13
2022-12-15T01:45:31.188Z,98911.16
2022-12-15T01:48:11.344Z,98913.96
2022-12-15T01:51:05.387Z,98917.91
2022-12-15T01:53:37.765Z,98918.45
2022-12-15T01:56:08.191Z,98923.46
2022-12-15T01:58:37.202Z,98920.66
2022-12-15T02:01:05.833Z,98921.45
2022-12-15T02:03:34.568Z,98925.92
2022-12-15T02:06:03.437Z,98925.73
2022-12-15T02:08:31.407Z,98927.42
2022-12-15T02:11:07.466Z,98925.77
2022-12-15T02:14:03.302Z,98924.90
2022-12-15T02:16:54.906Z,98922.90
2022-12-15T02:19:54.794Z,98915.87
2022-12-15T02:22:56.415Z,98915.56
2022-12-15T02:25:39.949Z,98909.27
2022-12-15T02:28:20.024Z,98912.44
2022-12-15T02:31:21.676Z,98913.78
2022-12-15T02:34:28.747Z,98914.29
2022-12-15T02:37:05.630Z,98914.46
2022-12-15T02:39:33.229Z,98918.45
2022-12-15T02:42:00.773Z,98918.85
2022-12-15T02:44:43.493Z,98915.04
2022-12-15T02:47:25.661Z,98913.70
2022-12-15T02:50:12.089Z,98913.86
2022-12-15T02:53:01.953Z,98916.85
2022-12-15T02:55:53.904Z,98920.69
2022-12-15T02:58:53.462Z,98922.34
2022-12-15T03:01:30.995Z,98924.61
2022-12-15T03:04:02.529Z,98931.25
2022-12-15T03:06:30.091Z,98936.70
2022-12-15T03:08:57.657Z,98936.11
2022-12-15T03:11:25.603Z,98941.07
2022-12-15T03:13:54.421Z,98940.98
2022-12-15T03:16:23.109Z,98938.48
2022-12-15T03:18:51.990Z,98936.69
2022-12-15T03:21:19.872Z,98935.96
2022-12-15T03:23:47.492Z,98932.13
2022-12-15T03:26:16.338Z,98930.30
2022-12-15T03:28:43.987Z,98929.48
2022-12-15T03:31:11.579Z,98930.27
2022-12-15T03:33:39.248Z,98930.32
2022-12-15T03:36:07.480Z,98932.94
2022-12-15T03:38:35.039Z,98929.90
2022-12-15T03:41:02.699Z,98936.63
2022-12-15T03:43:30.824Z,98943.20
2022-12-15T03:45:58.953Z,98944.48
2022-12-15T03:48:27.251Z,98942.48
2022-12-15T03:50:55.220Z,98946.70
2022-12-15T03:53:23.185Z,98944.66
2022-12-15T03:55:50.845Z,98949.48
2022-12-15T03:58:18.799Z,98950.68
2022-12-15T04:00:46.663Z,98957.64
2022-12-15T04:03:14.375Z,98955.94
2022-12-15T04:05:42.208Z,98961.27
2022-12-15T04:08:09.792Z,98967.18
2022-12-15T04:10:37.445Z,98968.27
2022-12-15T04:13:10.400Z,98974.15
2022-12-15T04:15:39.838Z,98972.55
2022-12-15T04:18:12.286Z,98971.41
2022-12-15T04:20:40.731Z,98966.95
2022-12-15T04:23:08.735Z,98962.37
2022-12-15T04:25:53.225Z,98960.98
2022-12-15T04:28:38.290Z,98959.52
2022-12-15T04:31:28.410Z,98956.41
2022-12-15T04:34:18.781Z,98957.77
2022-12-15T04:37:05.806Z,98959.70
2022-12-15T04:39:51.588Z,98963.70
2022-12-15T04:42:35.300Z,98961.65
2022-12-15T04:45:21.185Z,98962.55
2022-12-15T04:48:05.193Z,98967.01
2022-12-15T04:50:48.797Z,98969.12
2022-12-15T04:53:33.986Z,98978.45
2022-12-15T04:56:18.953Z,98985.03
2022-12-15T04:59:03.426Z,98984.05
2022-12-15T05:01:47.530Z,98988.86
2022-12-15T05:04:31.299Z,98990.14
2022-12-15T05:07:15.015Z,98989.45
2022-12-15T05:10:02.959Z,98990.72
2022-12-15T05:12:47.222Z,98989.84
2022-12-15T05:15:30.916Z,98984.84
2022-12-15T05:18:14.596Z,98987.20
2022-12-15T05:20:58.243Z,98990.09
2022-12-15T05:23:41.978Z,98998.52
2022-12-15T05:26:25.752Z,99004.30
2022-12-15T05:29:09.976Z,99011.30
2022-12-15T05:31:53.950Z,99014.84
2022-12-15T05:34:23.432Z,99017.88
2022-12-15T05:36:51.018Z,99019.15
2022-12-15T05:39:19.961Z,99023.14
2022-12-15T05:41:47.821Z,99029.00
2022-12-15T05:44:15.581Z,99036.81
2022-12-15T05:46:44.017Z,99037.60
2022-12-15T05:49:17.795Z,99045.21
2022-12-15T05:51:47.744Z,99046.89
2022-12-15T05:54:18.550Z,99056.14
2022-12-15T05:56:47.058Z,99055.30
2022-12-15T05:59:21.821Z,99050.63
2022-12-15T06:01:49.461Z,99054.42
2022-12-15T06:04:17.428Z,99059.20
2022-12-15T06:06:45.184Z,99061.86
2022-12-15T06:09:12.805Z,99066.23
2022-12-15T06:11:40.626Z,99070.36
2022-12-15T06:14:08.953Z,99077.73
2022-12-15T06:16:42.619Z,99079.92
2022-12-15T06:19:18.551Z,99087.80
2022-12-15T06:21:46.245Z,99091.66
2022-12-15T06:24:13.848Z,99097.03
2022-12-15T06:26:41.514Z,99103.75
2022-12-15T06:29:12.088Z,99108.10
2022-12-15T06:31:41.508Z,99114.14
2022-12-15T06:34:12.814Z,99121.41
2022-12-15T06:36:41.497Z,99124.16
2022-12-15T06:39:12.649Z,99132.39
2022-12-15T06:41:41.229Z,99131.23
2022-12-15T06:44:13.176Z,99128.33
2022-12-15T06:46:40.795Z,99129.11
2022-12-15T06:49:09.125Z,99129.66
2022-12-15T06:51:36.807Z,99129.81
2022-12-15T06:54:04.572Z,99133.81
2022-12-15T06:56:36.158Z,99131.41
2022-12-15T06:59:05.842Z,99132.69
2022-12-15T07:01:33.918Z,99143.36
2022-12-15T07:04:04.880Z,99150.47
2022-12-15T07:06:36.701Z,99158.63
2022-12-15T07:09:13.345Z,99166.93
2022-12-15T07:11:40.991Z,99177.34
2022-12-15T07:14:09.871Z,99182.21
2022-12-15T07:16:37.678Z,99187.95
2022-12-15T07:19:05.781Z,99186.23
2022-12-15T07:21:33.649Z,99189.62
2022-12-15T07:24:02.158Z,99192.79
2022-12-15T07:26:30.557Z,99194.84
2022-12-15T07:28:58.437Z,99199.98
2022-12-15T07:31:26.085Z,99201.23
2022-12-15T07:33:54.497Z,99202.48
2022-12-15T07:36:22.641Z,99209.86
2022-12-15T07:38:51.601Z,99209.15
2022-12-15T07:41:20.683Z,99212.63
2022-12-15T07:43:48.752Z,99218.43
2022-12-15T07:46:18.536Z,99223.67
2022-12-15T07:48:50.376Z,99224.30
2022-12-15T07:51:20.708Z,99223.50
2022-12-15T07:53:50.686Z,99228.48
2022-12-15T07:56:19.677Z,99229.41
2022-12-15T07:58:47.844Z,99233.20
2022-12-15T08:01:16.666Z,99234.75
2022-12-15T08:03:45.432Z,99239.82
2022-12-15T08:06:15.046Z,99242.52
2022-12-15T08:08:50.351Z,99247.02
2022-12-15T08:11:24.448Z,99256.36
2022-12-15T08:14:14.983Z,99257.00
2022-12-15T08:16:40.524Z,99255.25
2022-12-15T08:19:12.296Z,99253.75
2022-12-15T08:21:42.046Z,99260.27
2022-12-15T08:24:10.302Z,99264.02
2022-12-15T08:26:38.722Z,99266.32
2022-12-15T08:31:57.373Z,99277.66
2022-12-15T08:34:24.956Z,99284.58
2022-12-15T08:36:52.547Z,99288.02
2022-12-15T08:39:20.510Z,99290.84
2022-12-15T08:41:48.244Z,99295.82
2022-12-15T08:44:16.853Z,99299.44
2022-12-15T08:46:44.714Z,99303.57
2022-12-15T08:49:17.915Z,99304.17
2022-12-15T08:51:50.312Z,99312.05
2022-12-15T08:54:19.519Z,99320.90
2022-12-15T08:56:47.704Z,99323.79
2022-12-15T08:59:15.833Z,99320.69
2022-12-15T09:01:43.874Z,99318.66
2022-12-15T09:04:13.340Z,99328.42
2022-12-15T09:06:41.974Z,99334.02
2022-12-15T09:09:13.793Z,99333.49
2022-12-15T09:11:41.552Z,99338.22
2022-12-15T09:14:09.161Z,99342.98
2022-12-15T09:16:37.021Z,99349.17
2022-12-15T09:19:04.834Z,99345.39
2022-12-15T09:21:32.592Z,99343.30
2022-12-15T09:24:02.118Z,99344.04
2022-12-15T09:26:33.374Z,99347.96
2022-12-15T09:29:02.047Z,99338.40
2022-12-15T09:31:37.265Z,99339.16
2022-12-15T09:34:05.138Z,99340.40
2022-12-15T09:36:33.224Z,99343.14
2022-12-15T09:39:04.543Z,99338.52
2022-12-15T09:41:34.489Z,99342.23
2022-12-15T09:44:19.094Z,99341.44
2022-12-15T09:47:18.927Z,99340.81
2022-12-15T09:49:53.219Z,99344.06
2022-12-15T09:52:26.063Z,99346.46
2022-12-15T09:54:54.238Z,99348.73
2022-12-15T09:57:24.893Z,99348.67
2022-12-15T10:00:22.482Z,99354.02
2022-12-15T10:03:02.456Z,99356.05
2022-12-15T10:08:37.105Z,99359.38
2022-12-15T10:11:20.711Z,99356.59
2022-12-15T10:14:07.311Z,99360.05
2022-12-15T10:16:50.576Z,99359.13
2022-12-15T10:19:33.830Z,99366.45
2022-12-15T10:22:01.560Z,99363.27
2022-12-15T10:27:58.623Z,99369.98
2022-12-15T10:30:26.460Z,99375.13
2022-12-15T10:33:11.541Z,99379.19
2022-12-15T10:35:43.955Z,99376.45
2022-12-15T10:38:25.924Z,99372.23
2022-12-15T10:41:01.273Z,99373.14
2022-12-15T10:43:38.597Z,99381.90
2022-12-15T10:46:18.326Z,99384.84
2022-12-15T10:48:49.816Z,99379.94
2022-12-15T10:51:27.473Z,99383.52
2022-12-15T10:54:04.476Z,99389.83
2022-12-15T10:56:34.345Z,99388.22
2022-12-15T10:59:20.935Z,99396.30
2022-12-15T11:01:49.320Z,99398.41
2022-12-15T11:04:35.499Z,99391.05
2022-12-15T11:07:03.871Z,99391.59
2022-12-15T11:09:38.392Z,99393.59
2022-12-15T11:12:43.471Z,99394.02
2022-12-15T11:15:30.266Z,99402.57
2022-12-15T11:18:16.305Z,99407.98
2022-12-15T11:20:50.959Z,99405.42
2022-12-15T11:23:35.876Z,99419.84
2022-12-15T11:26:37.447Z,99422.30
2022-12-15T11:29:18.895Z,99425.30
2022-12-15T11:31:47.104Z,99427.96
2022-12-15T11:34:25.986Z,99429.58
2022-12-15T11:37:24.564Z,99431.69
2022-12-15T11:40:10.563Z,99434.98
2022-12-15T11:43:10.984Z,99433.52
2022-12-15T11:45:59.507Z,99432.45
2022-12-15T11:49:06.120Z,99438.05
2022-12-15T11:51:41.455Z,99441.25
2022-12-15T11:54:29.663Z,99440.97
2022-12-15T11:57:29.590Z,99440.39
2022-12-15T12:00:13.320Z,99442.31
2022-12-15T12:02:56.202Z,99440.48
2022-12-15T12:05:40.258Z,99442.45
2022-12-15T12:08:31.304Z,99447.08
2022-12-15T12:11:21.720Z,99450.39
2022-12-15T12:14:13.263Z,99457.76
2022-12-15T12:16:56.982Z,99460.86
2022-12-15T12:19:50.601Z,99460.58
2022-12-15T12:22:24.010Z,99465.85
2022-12-15T12:25:10.578Z,99473.73
2022-12-15T12:27:50.386Z,99480.29
2022-12-15T12:30:21.401Z,99486.51
2022-12-15T12:32:50.611Z,99489.90
2022-12-15T12:35:37.953Z,99498.52
2022-12-15T12:38:09.661Z,99505.58
2022-12-15T12:40:40.035Z,99506.41
2022-12-15T12:43:16.999Z,99508.59
2022-12-15T12:45:52.136Z,99512.43
2022-12-15T12:48:28.315Z,99511.67
2022-12-15T12:51:27.940Z,99514.91
2022-12-15T12:53:57.038Z,99513.64
2022-12-15T12:56:37.682Z,99514.77
2022-12-15T12:59:30.926Z,99514.30
2022-12-15T13:02:31.435Z,99516.57
2022-12-15T13:05:29.248Z,99516.23
2022-12-15T13:08:13.409Z,99515.73
2022-12-15T13:10:48.156Z,99516.00
2022-12-15T13:13:18.435Z,99515.44
2022-12-15T13:15:51.248Z,99516.88
2022-12-15T13:18:23.924Z,99518.27
2022-12-15T13:20:59.046Z,99524.92
2022-12-15T13:23:27.432Z,99526.70
2022-12-15T13:25:58.083Z,99529.07
2022-12-15T13:28:35.871Z,99534.34
2022-12-15T13:31:21.308Z,99534.82
2022-12-15T13:33:49.183Z,99533.16
2022-12-15T13:36:54.507Z,99537.44
2022-12-15T13:39:23.156Z,99543.82
2022-12-15T13:42:31.562Z,99546.77
2022-12-15T13:44:52.085Z,99544.20
2022-12-15T13:47:25.962Z,99547.39
2022-12-15T13:50:02.285Z,99542.38
2022-12-15T13:56:00.833Z,99547.81
2022-12-15T13:58:44.654Z,99553.27
2022-12-15T14:01:48.887Z,99561.38
2022-12-15T14:04:21.082Z,99558.92
2022-12-15T14:07:01.080Z,99558.01
2022-12-15T14:09:41.119Z,99558.80
2022-12-15T14:12:17.331Z,99564.36
2022-12-15T14:14:49.461Z,99562.98
2022-12-15T14:17:19.356Z,99560.03
2022-12-15T14:19:59.960Z,99564.22
2022-12-15T14:22:30.649Z,99570.50
2022-12-15T14:25:13.161Z,99571.42
2022-12-15T14:27:40.783Z,99587.42
2022-12-15T14:30:29.566Z,99600.41
2022-12-15T14:33:09.031Z,99606.35
2022-12-15T14:35:42.167Z,99606.73
2022-12-15T14:38:16.621Z,99601.41
2022-12-15T14:40:49.164Z,99607.36
2022-12-15T14:43:22.662Z,99609.98
2022-12-15T14:45:54.339Z,99606.30
2022-12-15T14:48:42.550Z,99604.84
2022-12-15T14:51:13.685Z,99608.56
2022-12-15T14:53:47.554Z,99609.60
2022-12-15T14:56:31.190Z,99607.06
2022-12-15T14:59:04.817Z,99604.27
2022-12-15T15:01:58.499Z,99599.22
2022-12-15T15:04:32.490Z,99597.48
2022-12-15T15:07:06.710Z,99602.02
2022-12-15T15:09:42.542Z,99603.51
2022-12-15T15:12:19.646Z,99606.93
2022-12-15T15:14:59.705Z,99606.40
2022-12-15T15:17:43.557Z,99611.92
2022-12-15T15:20:28.782Z,99609.90
2022-12-15T15:23:22.507Z,99608.89
2022-12-15T15:25:56.518Z,99614.39
2022-12-15T15:28:28.727Z,99614.64
2022-12-15T15:31:05.298Z,99614.25
2022-12-15T15:33:33.573Z,99609.64
2022-12-15T15:36:02.829Z,99614.81
2022-12-15T15:38:35.144Z,99617.20
2022-12-15T15:41:19.556Z,99618.93
2022-12-15T15:43:47.717Z,99619.16
2022-12-15T15:46:22.522Z,99620.08
2022-12-15T15:48:58.870Z,99618.48
2022-12-15T15:51:29.160Z,99623.95
2022-12-15T15:54:01.137Z,99620.02
2022-12-15T15:56:30.807Z,99628.35
2022-12-15T15:59:16.339Z,99622.59
2022-12-15T16:01:46.709Z,99627.27
2022-12-15T16:04:14.700Z,99621.46
2022-12-15T16:06:47.256Z,99623.43
2022-12-15T16:09:16.906Z,99622.04
2022-12-15T16:11:46.382Z,99627.34
2022-12-15T16:14:16.751Z,99635.52
2022-12-15T16:16:45.020Z,99643.80
2022-12-15T16:19:12.792Z,99650.27
2022-12-15T16:21:42.555Z,99654.56
2022-12-15T16:24:16.374Z,99657.92
2022-12-15T16:26:48.845Z,99657.44
2022-12-15T16:29:19.913Z,99659.80
2022-12-15T16:31:47.658Z,99655.64
2022-12-15T16:34:20.446Z,99660.19
2022-12-15T16:36:48.067Z,99656.27
2022-12-15T16:39:27.501Z,99664.54
2022-12-15T16:41:55.855Z,99668.55
2022-12-15T16:44:25.242Z,99665.40
2022-12-15T16:46:53.195Z,99662.34
2022-12-15T16:49:21.346Z,99656.80
2022-12-15T16:51:54.191Z,99655.39
2022-12-15T16:54:31.034Z,99658.38
2022-12-15T16:56:59.956Z,99659.55
2022-12-15T16:59:35.856Z,99668.20
2022-12-15T17:02:24.601Z,99672.13
2022-12-15T17:04:55.065Z,99684.55
2022-12-15T17:07:26.327Z,99686.75
2022-12-15T17:09:54.051Z,99686.52
2022-12-15T17:12:21.616Z,99686.81
2022-12-15T17:14:49.141Z,99690.60
2022-12-15T17:17:19.121Z,99694.09
2022-12-15T17:22:34.611Z,99709.02
2022-12-15T17:25:02.568Z,99712.29
2022-12-15T17:27:30.427Z,99711.61
2022-12-15T17:30:00.522Z,99714.08
2022-12-15T17:32:28.163Z,99717.98
2022-12-15T17:34:56.059Z,99718.20
2022-12-15T17:37:26.151Z,99721.93
2022-12-15T17:39:56.913Z,99719.52
2022-12-15T17:42:24.609Z,99719.80
2022-12-15T17:44:52.265Z,99721.34
2022-12-15T17:47:19.933Z,99732.71
2022-12-15T17:49:47.720Z,99736.55
2022-12-15T17:52:34.586Z,99739.27
2022-12-15T17:55:04.638Z,99741.08
2022-12-15T17:57:32.318Z,99740.92
2022-12-15T18:00:01.949Z,99739.55
2022-12-15T18:02:30.657Z,99732.56
2022-12-15T18:04:59.539Z,99729.30
2022-12-15T18:07:27.252Z,99733.04
2022-12-15T18:09:54.960Z,99737.38
2022-12-15T18:12:25.414Z,99739.46
2022-12-15T18:14:54.207Z,99739.00
2022-12-15T18:17:22.722Z,99742.33
2022-12-15T18:19:50.348Z,99741.36
2022-12-15T18:22:22.484Z,99743.33
2022-12-15T18:24:53.131Z,99749.63
2022-12-15T18:27:26.445Z,99754.94
2022-12-15T18:29:54.426Z,99759.31
2022-12-15T18:32:25.563Z,99755.94
2022-12-15T18:34:53.788Z,99758.13
2022-12-15T18:37:24.544Z,99761.61
2022-12-15T18:39:52.435Z,99769.83
2022-12-15T18:42:22.845Z,99769.39
2022-12-15T18:44:52.551Z,99767.50
2022-12-15T18:47:22.921Z,99763.52
2022-12-15T18:49:51.105Z,99766.88
2022-12-15T18:52:21.365Z,99765.55
2022-12-15T18:54:51.014Z,99768.13
2022-12-15T18:57:29.437Z,99770.38
2022-12-15T19:00:01.766Z,99773.89
2022-12-15T19:02:29.634Z,99772.77
2022-12-15T19:04:57.422Z,99769.29
2022-12-15T19:07:25.044Z,99773.29
2022-12-15T19:09:53.109Z,99773.30
2022-12-15T19:12:20.814Z,99771.71
2022-12-15T19:14:51.822Z,99775.37
2022-12-15T19:17:37.637Z,99775.43
2022-12-15T19:20:33.679Z,99781.72
2022-12-15T19:23:01.589Z,99784.48
2022-12-15T19:25:29.775Z,99782.28
2022-12-15T19:27:59.908Z,99776.95
2022-12-15T19:30:30.661Z,99777.77
2022-12-15T19:32:58.642Z,99781.70
2022-12-15T19:35:28.000Z,99789.44
2022-12-15T19:37:58.439Z,99789.48
2022-12-15T19:40:30.075Z,99784.41
2022-12-15T19:43:00.030Z,99780.37
2022-12-15T19:45:30.388Z,99776.41
2022-12-15T19:47:58.943Z,99776.95
2022-12-15T19:50:37.577Z,99772.58
2022-12-15T19:53:11.753Z,99788.21
2022-12-15T19:55:39.688Z,99793.98
2022-12-15T19:58:28.252Z,99794.43
2022-12-15T20:01:00.501Z,99799.78
2022-12-15T20:03:30.222Z,99795.15
2022-12-15T20:06:00.904Z,99793.58
2022-12-15T20:08:34.192Z,99794.74
2022-12-15T20:11:01.919Z,99795.82
2022-12-15T20:13:31.028Z,99800.59
2022-12-15T20:15:58.866Z,99803.55
2022-12-15T20:18:26.404Z,99807.92
2022-12-15T20:20:54.062Z,99817.92
2022-12-15T20:23:26.357Z,99816.34
2022-12-15T20:25:55.830Z,99814.42
2022-12-15T20:28:26.627Z,99814.30
2022-12-15T20:30:56.165Z,99815.25
2022-12-15T20:33:24.693Z,99816.89
2022-12-15T20:35:52.711Z,99822.45
2022-12-15T20:38:34.710Z,99825.67
2022-12-15T20:41:03.602Z,99818.59
2022-12-15T20:43:33.889Z,99818.89
2022-12-15T20:46:06.276Z,99815.63
2022-12-15T20:48:36.766Z,99816.17
2022-12-15T20:51:09.862Z,99820.76
2022-12-15T20:53:38.887Z,99821.50
2022-12-15T20:56:06.929Z,99823.17
2022-12-15T21:01:28.861Z,99831.85
2022-12-15T21:03:58.070Z,99823.86
2022-12-15T21:06:27.444Z,99825.09
2022-12-15T21:08:56.014Z,99828.92
2022-12-15T21:11:31.269Z,99829.23
2022-12-15T21:14:04.036Z,99834.27
2022-12-15T21:16:32.673Z,99841.36
2022-12-15T21:19:19.677Z,99844.84
2022-12-15T21:21:52.006Z,99848.79
2022-12-15T21:24:23.073Z,99856.55
2022-12-15T21:26:51.992Z,99861.98
2022-12-15T21:29:25.666Z,99862.59
2022-12-15T21:31:53.463Z,99869.47
2022-12-15T21:34:21.264Z,99873.14
2022-12-15T21:36:52.317Z,99872.87
2022-12-15T21:39:29.246Z,99872.56
2022-12-15T21:42:00.383Z,99874.42
2022-12-15T21:44:28.307Z,99873.21
2022-12-15T21:46:55.916Z,99879.69
2022-12-15T21:49:24.308Z,99884.14
2022-12-15T21:52:00.735Z,99878.13
2022-12-15T21:54:34.835Z,99882.04
2022-12-15T21:57:03.044Z,99884.70
2022-12-15T21:59:32.540Z,99883.11
2022-12-15T22:02:01.150Z,99877.50
2022-12-15T22:04:33.921Z,99880.27
2022-12-15T22:07:01.839Z,99876.71
2022-12-15T22:09:29.540Z,99871.64
2022-12-15T22:11:57.954Z,99873.30
2022-12-15T22:14:32.936Z,99871.26
2022-12-15T22:17:02.115Z,99868.70
2022-12-15T22:19:29.675Z,99862.35
2022-12-15T22:21:57.227Z,99855.95
2022-12-15T22:24:24.952Z,99855.39
2022-12-15T22:26:52.561Z,99857.36
2022-12-15T22:29:24.898Z,99853.51
2022-12-15T22:31:52.504Z,99853.30
2022-12-15T22:34:26.038Z,99851.38
2022-12-15T22:36:55.008Z,99849.23
2022-12-15T22:39:22.953Z,99850.34
2022-12-15T22:41:51.429Z,99849.94
2022-12-15T22:44:23.665Z,99850.80
2022-12-15T22:46:53.970Z,99851.59
2022-12-15T22:49:28.785Z,99851.07
2022-12-15T22:51:56.299Z,99851.59
2022-12-15T22:54:26.875Z,99852.05
2022-12-15T22:57:03.796Z,99849.67
2022-12-15T22:59:41.260Z,99853.19
2022-12-15T23:02:10.079Z,99848.90
2022-12-15T23:04:37.739Z,99846.23
2022-12-15T23:07:10.017Z,99848.86
2022-12-15T23:09:38.456Z,99855.12
2022-12-15T23:12:06.236Z,99860.35
2022-12-15T23:14:50.012Z,99857.16
2022-12-15T23:17:17.939Z,99862.13
2022-12-15T23:19:46.544Z,99857.58
2022-12-15T23:22:14.318Z,99859.63
2022-12-15T23:24:41.943Z,99858.55
2022-12-15T23:27:11.328Z,99862.02
2022-12-15T23:29:39.042Z,99862.23
2022-12-15T23:32:06.632Z,99856.67
2022-12-15T23:34:34.223Z,99858.79
2022-12-15T23:37:02.349Z,99859.75
2022-12-15T23:39:29.957Z,99867.26
2022-12-15T23:41:57.684Z,99864.33
2022-12-15T23:44:25.304Z,99870.27
2022-12-15T23:46:52.991Z,99872.39
2022-12-15T23:49:20.606Z,99874.27
2022-12-15T23:51:48.823Z,99876.19
2022-12-15T23:54:16.344Z,99877.52
2022-12-15T23:56:44.105Z,99872.67
2022-12-15T23:59:12.618Z,99868.83
